首页
METAR-TAF:

METAR-TAF

机场 :

Mosinee, 威斯康辛州, 美国

纬度: 44-47N, 经度: 089-40W, 海拔: 389米

当前天气观测

该预报发布于22分钟前的05:35 UTC
风速13节,风向,有时为21节阵风
温度 23°C
湿度 78%
气压 1003 hPa
能見度: 16.1公里
散云层高于3900英尺
散云层高于4600英尺
阴天层高于24000英尺
附近有雷暴

METAR: KCWA 250535Z AUTO 18013G21KT 10SM VCTS SCT039 SCT046 OVC240 23/19 A2961 RMK AO2 LTG DSNT ALQDS

时间: 00:57 (05:57 UTC)

预报

该预报发布于23分钟前的05:34 UTC
预报有效从25日的 06点(UTC)到 26日的 06点(UTC)
风速10节,风向,有时为16节阵风
能見度: 10公里
阴天层高于3500英尺, 积雨云.
附近有雷暴
短暂存在
从 25日的 06点(UTC)到 25日的 08点(UTC)
风速22节,风向西转西南,有时为40节阵风
能見度: 1.6公里
阴天层高于1000英尺, 积雨云.
雷暴, 大雨
从 25日的 0800点(UTC)
风速11节,风向西转西南
能見度: 10公里
散云层高于1000英尺
多云层高于2000英尺
从 25日的 1100点(UTC)
风速9节,风向西
能見度: 10公里
散云层高于1200英尺
从 25日的 1500点(UTC)
风速9节,风向西转西北,有时为19节阵风
能見度: 10公里
散云层高于15000英尺
从 25日的 2300点(UTC)
风速7节,风向西转西北
能見度: 10公里
散云层高于25000英尺

TAF: KCWA 250534Z 2506/2606 18010G16KT P6SM VCTS OVC035CB TEMPO 2506/2508 24022G40KT 1SM +TSRA OVC010CB FM250800 24011KT P6SM SCT010 BKN020 FM251100 27009KT P6SM SCT012 FM251500 29009G19KT P6SM SCT150 FM252300 29007KT P6SM SCT250

超过4000个机场的气象观测和天气预报(METAR&TAF报告)。

可查询的气象台以黄色和红色小点在地图上表示。

将鼠标移到小点上方,可查看气象台名称。

然后点击查看天气观测和预报。

如需切换地图:点击带黑十字的绿色按钮放大地图;点击带横线的绿色按钮缩小地图;或者点击绿色箭头查看邻近地区的地图。


METAR-TAF: